Time;durP1;ratioP1;P1;durP2;ratioP2;P2;SDS_P1;SDS_P2;PMS_P1;PMS_P2;Temp;Humidity;BMP_temperature;BMP_pressure;BME280_temperature;BME280_humidity;BME280_pressure;Samples;Min_cycle;Max_cycle;Signal;HPM_P1;HPM_P2
2022/12/21 00:00:10;;;;;;;46.88;20.13;;;;;;;-0.39;70.35;101041.78;3145629;28;20048;-63
2022/12/21 00:01:41;;;;;;;51.33;20.85;;;;;;;-0.37;70.37;101036.72;3146078;28;20053;-63
2022/12/21 00:03:12;;;;;;;48.72;20.65;;;;;;;-0.37;70.22;101031.59;3156318;28;20131;-64
2022/12/21 00:04:44;;;;;;;46.67;19.88;;;;;;;-0.37;70.27;101031.59;3131765;28;20064;-64
2022/12/21 00:06:18;;;;;;;44.22;19.98;;;;;;;-0.37;70.21;101037.56;3156065;28;20060;-64
2022/12/21 00:07:49;;;;;;;47.75;19.70;;;;;;;-0.37;70.16;101031.59;3156641;28;20078;-64
2022/12/21 00:09:21;;;;;;;46.03;19.48;;;;;;;-0.36;70.13;101023.94;3154553;28;20063;-64
2022/12/21 00:10:59;;;;;;;46.33;19.50;;;;;;;-0.35;70.03;101018.00;3152989;28;20485;-65
2022/12/21 00:12:31;;;;;;;42.45;19.73;;;;;;;-0.37;70.21;101013.69;3153894;28;20052;-65
2022/12/21 00:14:03;;;;;;;49.85;21.02;;;;;;;-0.35;70.11;101012.03;3148295;28;20105;-64
2022/12/21 00:15:34;;;;;;;49.38;20.75;;;;;;;-0.42;70.00;101003.34;3150956;28;20370;-65
2022/12/21 00:17:06;;;;;;;46.78;20.90;;;;;;;-0.38;69.82;101012.81;3150539;28;20066;-65
2022/12/21 00:18:38;;;;;;;45.55;19.25;;;;;;;-0.42;70.05;100999.94;3156609;28;20048;-65
2022/12/21 00:20:10;;;;;;;47.47;20.63;;;;;;;-0.37;70.03;101017.09;3156558;28;20047;-65
2022/12/21 00:21:44;;;;;;;48.78;19.48;;;;;;;-0.38;69.96;101006.84;3156805;28;20052;-65
2022/12/21 00:23:15;;;;;;;53.10;21.58;;;;;;;-0.39;70.09;101007.66;3154070;28;20040;-64
2022/12/21 00:24:46;;;;;;;50.33;20.80;;;;;;;-0.47;69.95;100984.50;3151034;28;20100;-65
2022/12/21 00:26:20;;;;;;;49.30;21.05;;;;;;;-0.39;69.87;100990.59;3149120;28;20060;-64
2022/12/21 00:27:52;;;;;;;48.55;19.77;;;;;;;-0.35;69.75;101000.09;3159313;28;20504;-65
2022/12/21 00:29:24;;;;;;;46.15;19.63;;;;;;;-0.36;69.90;100997.47;3158381;28;20490;-64
2022/12/21 00:30:56;;;;;;;50.17;19.75;;;;;;;-0.35;69.92;101001.78;3158677;28;20060;-64
2022/12/21 00:32:28;;;;;;;48.83;19.08;;;;;;;-0.36;69.82;100993.22;3159047;28;20530;-64
2022/12/21 00:34:00;;;;;;;45.28;19.30;;;;;;;-0.35;69.75;100996.66;3156341;28;20052;-64
2022/12/21 00:35:32;;;;;;;49.85;20.08;;;;;;;-0.36;69.66;100992.38;3158060;28;20430;-64
2022/12/21 00:37:05;;;;;;;43.67;19.55;;;;;;;-0.36;69.59;100994.91;3158627;28;20474;-64
2022/12/21 00:38:36;;;;;;;49.75;19.23;;;;;;;-0.39;69.84;100998.28;3156374;28;20452;-64
2022/12/21 00:40:10;;;;;;;48.42;21.13;;;;;;;-0.40;69.82;100996.56;3156122;28;20052;-65
2022/12/21 00:41:41;;;;;;;40.80;18.35;;;;;;;-0.39;69.72;100990.59;3158898;28;20063;-64
2022/12/21 00:43:13;;;;;;;47.38;19.40;;;;;;;-0.38;69.72;100988.94;3158925;28;20048;-64
2022/12/21 00:44:45;;;;;;;42.60;18.02;;;;;;;-0.42;69.63;100982.88;3158851;28;20048;-64
2022/12/21 00:46:19;;;;;;;42.58;18.23;;;;;;;-0.91;69.71;100905.22;3158597;28;20044;-64
2022/12/21 00:47:51;;;;;;;44.13;17.92;;;;;;;-0.58;69.90;100957.84;3158657;28;20048;-65
2022/12/21 00:49:23;;;;;;;40.53;19.02;;;;;;;-0.58;69.87;100955.28;3158258;28;20436;-64
2022/12/21 00:50:55;;;;;;;49.17;19.58;;;;;;;-0.40;69.91;100983.78;3158838;28;20044;-64
2022/12/21 00:52:29;;;;;;;45.50;19.60;;;;;;;-0.40;69.90;100981.22;3158572;28;20397;-65
2022/12/21 00:54:02;;;;;;;40.17;17.77;;;;;;;-0.42;69.79;100977.75;3149702;28;20044;-65
2022/12/21 00:55:33;;;;;;;42.75;18.85;;;;;;;-0.45;69.95;100967.47;3158908;28;20476;-64
2022/12/21 00:57:06;;;;;;;46.33;19.60;;;;;;;-0.44;69.69;100965.75;3158897;28;20052;-65
2022/12/21 00:58:38;;;;;;;51.13;19.88;;;;;;;-0.46;69.73;100966.59;3158511;28;20056;-64
2022/12/21 01:00:11;;;;;;;42.97;17.70;;;;;;;-0.40;69.76;100977.78;3158825;28;20512;-64
2022/12/21 01:01:43;;;;;;;41.00;18.45;;;;;;;-0.41;69.81;100968.38;3146967;28;20746;-65
2022/12/21 01:03:14;;;;;;;38.40;17.17;;;;;;;-0.42;69.87;100970.06;3133628;28;20093;-64
2022/12/21 01:04:46;;;;;;;36.90;17.25;;;;;;;-0.41;69.73;100968.38;3157449;28;20048;-64
2022/12/21 01:06:19;;;;;;;39.13;17.70;;;;;;;-0.41;69.60;100964.13;3158688;28;20059;-64
2022/12/21 01:07:53;;;;;;;37.88;17.63;;;;;;;-0.40;69.67;100968.41;3157053;28;20059;-64
2022/12/21 01:09:24;;;;;;;35.92;16.42;;;;;;;-0.40;69.67;100965.84;3156389;28;20059;-65
2022/12/21 01:11:01;;;;;;;39.10;16.10;;;;;;;-0.40;69.55;100963.28;3158376;28;20048;-65
2022/12/21 01:12:33;;;;;;;39.65;17.33;;;;;;;-0.65;69.61;100920.19;3153307;28;20059;-64
2022/12/21 01:14:05;;;;;;;36.17;15.60;;;;;;;-0.44;69.62;100956.41;3151491;28;20048;-65
2022/12/21 01:15:41;;;;;;;37.63;16.55;;;;;;;-0.44;69.71;100955.53;3158312;28;20530;-65
2022/12/21 01:17:12;;;;;;;35.85;16.10;;;;;;;-0.81;69.72;100896.88;3158521;28;20052;-66
2022/12/21 01:18:45;;;;;;;32.00;15.20;;;;;;;-0.48;69.61;100957.16;3157972;28;20048;-66
2022/12/21 01:20:17;;;;;;;37.63;16.65;;;;;;;-0.55;69.73;100942.56;3146719;28;20044;-65
2022/12/21 01:21:48;;;;;;;38.00;16.35;;;;;;;-0.47;69.65;100952.09;3158237;28;20052;-65
2022/12/21 01:23:23;;;;;;;36.03;14.68;;;;;;;-0.46;69.56;100947.84;3153832;28;20044;-63
2022/12/21 01:24:55;;;;;;;38.97;16.40;;;;;;;-0.51;69.86;100942.63;3158407;28;20044;-64
2022/12/21 01:26:27;;;;;;;32.00;15.40;;;;;;;-0.47;69.50;100949.53;3158623;28;20528;-65
2022/12/21 01:27:59;;;;;;;40.25;16.05;;;;;;;-0.68;69.63;100913.34;3157829;28;20044;-64
2022/12/21 01:29:31;;;;;;;32.83;14.68;;;;;;;-0.50;69.51;100943.50;3158057;28;20482;-64
2022/12/21 01:31:03;;;;;;;37.08;15.82;;;;;;;-0.51;69.56;100941.75;3157515;28;20455;-65
2022/12/21 01:32:35;;;;;;;36.22;14.48;;;;;;;-0.52;69.60;100943.47;3158183;28;20441;-63
2022/12/21 01:34:07;;;;;;;34.45;15.85;;;;;;;-0.56;69.86;100943.38;3154960;28;20040;-63
2022/12/21 01:35:39;;;;;;;37.70;16.10;;;;;;;-0.61;69.57;100934.78;3132379;28;20449;-64
2022/12/21 01:37:10;;;;;;;39.03;15.45;;;;;;;-0.59;69.64;100935.63;3153715;28;20101;-63
2022/12/21 01:38:45;;;;;;;36.17;15.50;;;;;;;-0.59;69.84;100939.09;3156599;28;20054;-64
2022/12/21 01:40:16;;;;;;;36.10;15.80;;;;;;;-0.59;69.79;100945.88;3157891;28;20453;-64
2022/12/21 01:41:48;;;;;;;38.80;16.40;;;;;;;-0.75;69.84;100914.91;3158123;28;20131;-64
2022/12/21 01:43:48;;;;;;;37.10;17.42;;;;;;;-0.66;69.81;100933.81;3158492;28;20050;-64
2022/12/21 01:45:25;;;;;;;34.28;15.15;;;;;;;-0.62;69.97;100938.13;3158303;28;20532;-64
2022/12/21 01:46:55;;;;;;;39.08;16.65;;;;;;;-0.63;69.95;100926.19;3158259;28;20048;-64
2022/12/21 01:48:27;;;;;;;36.03;16.48;;;;;;;-0.61;69.99;100924.53;3158470;28;20056;-63
2022/12/21 01:50:03;;;;;;;38.95;17.52;;;;;;;-0.62;69.92;100920.22;3158163;28;20105;-64
2022/12/21 01:51:38;;;;;;;39.92;17.30;;;;;;;-0.64;70.09;100919.38;3156919;28;20097;-64
2022/12/21 01:53:13;;;;;;;40.75;17.98;;;;;;;-0.83;70.09;100882.34;3149946;28;20052;-64
2022/12/21 01:54:50;;;;;;;35.42;14.45;;;;;;;-0.83;70.05;100892.56;3155929;28;20050;-63
2022/12/21 01:56:27;;;;;;;35.33;16.13;;;;;;;-0.77;70.03;100906.34;3157678;28;20048;-64
2022/12/21 01:58:01;;;;;;;39.45;16.73;;;;;;;-0.74;70.02;100905.53;3158165;28;20056;-63
2022/12/21 01:59:35;;;;;;;36.92;16.02;;;;;;;-0.70;70.17;100907.31;3157793;28;20412;-63
2022/12/21 02:01:08;;;;;;;40.50;17.10;;;;;;;-0.72;70.17;100914.94;3150915;28;20726;-63
2022/12/21 02:02:46;;;;;;;38.47;17.92;;;;;;;-0.75;69.87;100907.22;3154334;28;20071;-64
2022/12/21 02:04:18;;;;;;;39.15;16.85;;;;;;;-0.80;70.04;100905.41;3158123;28;20517;-64
2022/12/21 02:05:54;;;;;;;38.70;17.38;;;;;;;-1.43;70.20;100804.50;3158187;28;20063;-64
2022/12/21 02:07:26;;;;;;;33.22;15.90;;;;;;;-0.79;70.21;100914.81;3152820;28;20089;-64
2022/12/21 02:09:00;;;;;;;37.25;17.95;;;;;;;-0.80;70.27;100908.84;3151850;28;20125;-64
2022/12/21 02:10:34;;;;;;;39.78;17.92;;;;;;;-0.79;70.25;100909.72;3157912;28;20117;-64
2022/12/21 02:12:10;;;;;;;36.58;17.15;;;;;;;-0.79;70.24;100910.56;3157812;28;20059;-64
2022/12/21 02:13:42;;;;;;;39.53;16.42;;;;;;;-0.79;70.37;100907.16;3146607;28;20469;-63
2022/12/21 02:15:12;;;;;;;44.47;17.58;;;;;;;-0.81;70.22;100908.81;3152917;28;20048;-65
2022/12/21 02:16:57;;;;;;;34.10;16.08;;;;;;;-0.99;70.17;100882.06;3145514;28;20055;-64
2022/12/21 02:18:46;;;;;;;38.95;17.58;;;;;;;-1.84;70.29;100744.09;3150512;28;20055;-64
2022/12/21 02:20:53;;;;;;;39.42;17.50;;;;;;;-0.86;70.27;100906.16;3157550;28;20461;-65
2022/12/21 02:22:40;;;;;;;32.95;15.55;;;;;;;-0.97;70.27;100894.88;3154122;28;20452;-65
2022/12/21 02:24:54;;;;;;;37.85;16.65;;;;;;;-0.95;70.28;100900.88;3157623;28;20056;-64
2022/12/21 02:27:04;;;;;;;39.28;15.65;;;;;;;-1.05;70.33;100896.41;3140621;28;20176;-65
2022/12/21 02:29:08;;;;;;;35.60;14.77;;;;;;;-1.09;70.47;100895.50;3152363;28;20525;-64
2022/12/21 02:31:00;;;;;;;37.15;15.90;;;;;;;-2.16;70.63;100715.41;3157104;28;20420;-65
2022/12/21 02:32:42;;;;;;;38.10;16.02;;;;;;;-1.06;70.57;100899.81;3134355;28;20060;-65
2022/12/21 02:34:23;;;;;;;32.35;15.30;;;;;;;-1.09;70.59;100887.84;3154355;28;20044;-65
2022/12/21 02:36:07;;;;;;;34.42;15.20;;;;;;;-1.05;70.58;100891.31;3153391;28;20517;-64
2022/12/21 02:37:45;;;;;;;36.70;14.63;;;;;;;-1.07;70.77;100891.25;3157693;28;20047;-65
2022/12/21 02:39:27;;;;;;;36.60;15.45;;;;;;;-1.07;70.56;100895.50;3157449;28;20044;-64
2022/12/21 02:41:06;;;;;;;34.60;14.88;;;;;;;-1.08;70.69;100898.91;3157245;28;20193;-65
2022/12/21 02:44:48;;;;;;;34.63;14.82;;;;;;;-1.17;70.73;100885.13;3157113;28;20036;-65
2022/12/21 02:46:26;;;;;;;31.67;14.02;;;;;;;-1.20;70.76;100887.59;3157572;28;20448;-64
2022/12/21 02:48:05;;;;;;;32.30;14.98;;;;;;;-1.15;70.92;100892.81;3157760;28;20588;-65
2022/12/21 02:49:44;;;;;;;35.53;16.00;;;;;;;-1.25;70.93;100866.19;3157241;28;20046;-64
2022/12/21 02:51:21;;;;;;;37.28;16.10;;;;;;;-1.19;71.13;100881.66;3149108;28;20458;-64
2022/12/21 02:52:58;;;;;;;32.53;15.52;;;;;;;-1.22;71.02;100889.25;3153003;28;20484;-64
2022/12/21 02:54:29;;;;;;;37.50;15.10;;;;;;;-1.25;71.18;100886.66;3153022;28;20113;-65
2022/12/21 02:56:01;;;;;;;28.92;15.00;;;;;;;-1.26;71.20;100882.38;3157047;28;20052;-65
2022/12/21 02:57:34;;;;;;;35.95;15.40;;;;;;;-1.27;71.30;100878.09;3157036;28;20505;-64
2022/12/21 02:59:09;;;;;;;30.52;15.23;;;;;;;-1.28;71.36;100880.63;3157495;28;20051;-65
2022/12/21 03:00:56;;;;;;;35.17;14.18;;;;;;;-1.31;71.35;100872.88;3153607;28;20057;-64
2022/12/21 03:05:12;;;;;;;30.00;13.73;;;;;;;-1.35;71.44;100874.53;3140499;28;20097;-65
2022/12/21 03:07:03;;;;;;;31.48;14.25;;;;;;;-1.46;71.53;100856.41;3136333;28;20045;-65
2022/12/21 03:08:46;;;;;;;32.13;14.20;;;;;;;-1.40;71.53;100874.41;3157297;28;20131;-65
2022/12/21 03:10:31;;;;;;;34.47;14.55;;;;;;;-1.42;71.54;100870.09;3157382;28;20052;-65
2022/12/21 03:12:13;;;;;;;33.75;14.93;;;;;;;-1.44;71.65;100864.97;3156191;28;20052;-65
2022/12/21 03:13:50;;;;;;;35.88;14.77;;;;;;;-1.59;71.71;100840.81;3147605;28;20131;-65
2022/12/21 03:15:34;;;;;;;35.28;14.77;;;;;;;-1.55;71.92;100851.13;3157040;28;20043;-65
2022/12/21 03:17:14;;;;;;;33.53;14.43;;;;;;;-1.53;71.90;100853.72;3153497;28;20385;-65
2022/12/21 03:18:58;;;;;;;32.88;14.43;;;;;;;-1.69;71.83;100824.41;3157112;28;20166;-65
2022/12/21 03:20:37;;;;;;;34.58;14.77;;;;;;;-1.50;71.66;100857.19;3150278;28;20036;-65
2022/12/21 03:22:17;;;;;;;33.38;14.30;;;;;;;-1.53;71.81;100846.91;3157029;28;20389;-65
2022/12/21 03:23:57;;;;;;;37.13;17.42;;;;;;;-1.49;71.68;100851.25;3156506;28;20048;-65
2022/12/21 03:25:34;;;;;;;34.42;15.57;;;;;;;-1.91;71.54;100789.91;3157238;28;20048;-65
2022/12/21 03:27:14;;;;;;;33.42;14.10;;;;;;;-1.52;71.73;100851.19;3156884;28;20051;-65
2022/12/21 03:28:50;;;;;;;37.65;14.40;;;;;;;-1.54;71.81;100850.28;3156873;28;20052;-65
2022/12/21 03:30:22;;;;;;;31.98;14.02;;;;;;;-1.75;71.81;100807.28;3156780;28;20101;-65
2022/12/21 03:32:11;;;;;;;34.00;14.55;;;;;;;-1.56;71.90;100848.53;3156485;28;20048;-65
2022/12/21 03:33:48;;;;;;;32.08;14.18;;;;;;;-1.61;71.94;100833.97;3154779;28;20452;-64
2022/12/21 03:35:27;;;;;;;35.08;14.98;;;;;;;-1.59;71.98;100845.94;3155367;28;20113;-64
2022/12/21 03:37:06;;;;;;;38.25;15.57;;;;;;;-1.62;72.09;100847.56;3156938;28;20043;-64
2022/12/21 03:38:43;;;;;;;35.53;15.30;;;;;;;-1.66;72.25;100838.09;3156696;28;20059;-65
2022/12/21 03:40:21;;;;;;;39.85;15.32;;;;;;;-1.61;72.24;100836.53;3156828;28;20052;-64
2022/12/21 03:41:57;;;;;;;35.90;14.60;;;;;;;-1.60;72.21;100845.03;3156959;28;20212;-64
2022/12/21 03:43:33;;;;;;;33.20;14.65;;;;;;;-1.82;72.21;100807.97;3156506;28;20048;-64
2022/12/21 03:45:09;;;;;;;34.03;15.23;;;;;;;-1.63;72.11;100842.41;3156260;28;20051;-65
2022/12/21 03:46:44;;;;;;;33.13;14.48;;;;;;;-1.64;72.11;100843.25;3156727;28;20389;-65
2022/12/21 03:48:23;;;;;;;31.52;14.50;;;;;;;-1.65;71.93;100846.66;3155511;28;20048;-65
2022/12/21 03:49:58;;;;;;;35.00;15.35;;;;;;;-1.65;72.12;100841.56;3154993;28;20113;-65
2022/12/21 03:51:37;;;;;;;34.67;14.50;;;;;;;-1.68;72.24;100844.03;3156575;28;20101;-65
2022/12/21 03:53:15;;;;;;;33.20;15.45;;;;;;;-1.89;72.05;100806.16;3150075;28;20106;-65
2022/12/21 03:54:54;;;;;;;32.40;13.68;;;;;;;-1.66;72.13;100830.44;3143903;28;20041;-65
2022/12/21 03:56:33;;;;;;;38.10;14.95;;;;;;;-1.60;72.13;100839.94;3155929;28;20121;-65
2022/12/21 03:58:05;;;;;;;31.60;14.80;;;;;;;-1.59;72.18;100838.25;3156997;28;20048;-64
2022/12/21 03:59:41;;;;;;;31.65;14.07;;;;;;;-1.63;72.25;100832.22;3156056;28;20046;-64
2022/12/21 04:01:21;;;;;;;36.25;15.00;;;;;;;-1.55;72.13;100837.50;3145089;28;20063;-65
2022/12/21 04:02:58;;;;;;;32.85;14.68;;;;;;;-1.65;72.09;100819.41;3144906;28;20056;-66
2022/12/21 04:04:36;;;;;;;31.75;14.13;;;;;;;-1.90;72.07;100778.88;3155412;28;20047;-65
2022/12/21 04:06:11;;;;;;;30.63;14.00;;;;;;;-1.73;72.11;100800.50;3153544;28;20048;-65
2022/12/21 04:07:47;;;;;;;31.45;13.95;;;;;;;-1.52;72.13;100835.00;3152486;28;20060;-65
2022/12/21 04:09:20;;;;;;;31.45;14.38;;;;;;;-1.69;72.18;100809.94;3154181;28;20120;-63
2022/12/21 04:10:52;;;;;;;34.35;14.32;;;;;;;-1.49;72.04;100837.59;3156574;28;20125;-64
2022/12/21 04:12:39;;;;;;;33.30;13.70;;;;;;;-1.48;72.03;100829.09;3155840;28;20097;-64
2022/12/21 04:14:09;;;;;;;35.45;14.70;;;;;;;-1.61;72.15;100817.78;3150711;28;20048;-64
2022/12/21 04:17:31;;;;;;;34.42;15.43;;;;;;;-1.51;72.16;100836.72;3154369;28;20044;-64
2022/12/21 04:20:52;;;;;;;35.78;14.35;;;;;;;-1.47;72.30;100830.84;3151792;28;20044;-64
2022/12/21 04:28:08;;;;;;;34.67;13.52;;;;;;;-1.47;72.23;100836.81;3156645;28;20687;-63
2022/12/21 04:29:40;;;;;;;31.48;13.88;;;;;;;-1.48;72.05;100829.09;3156715;28;20381;-63
2022/12/21 04:31:12;;;;;;;32.30;13.65;;;;;;;-1.47;72.22;100830.84;3156210;28;20505;-64
2022/12/21 04:32:44;;;;;;;34.58;15.13;;;;;;;-1.47;72.27;100830.84;3151132;28;20063;-64
2022/12/21 04:34:16;;;;;;;34.28;14.43;;;;;;;-1.46;72.23;100835.13;3152563;28;20657;-63
2022/12/21 04:37:38;;;;;;;33.72;15.13;;;;;;;-1.55;72.34;100815.34;3156300;28;20044;-63
2022/12/21 04:39:09;;;;;;;35.78;14.30;;;;;;;-2.01;72.27;100739.50;3156124;28;20509;-66
2022/12/21 04:40:43;;;;;;;41.90;15.93;;;;;;;-1.49;72.25;100825.69;3156074;28;20051;-64
2022/12/21 04:42:14;;;;;;;36.20;15.52;;;;;;;-1.49;72.26;100824.84;3144348;28;20060;-64
2022/12/21 04:43:46;;;;;;;37.83;15.40;;;;;;;-1.53;72.20;100815.41;3139547;28;20044;-64
2022/12/21 04:45:18;;;;;;;33.80;13.85;;;;;;;-2.26;72.17;100687.09;3155781;28;20494;-65
2022/12/21 04:46:50;;;;;;;30.77;13.57;;;;;;;-1.46;72.23;100817.22;3154213;28;20131;-64
2022/12/21 04:48:22;;;;;;;35.88;14.32;;;;;;;-1.46;72.18;100817.22;3154046;28;20048;-64
2022/12/21 04:49:54;;;;;;;34.28;15.02;;;;;;;-1.47;72.13;100815.53;3155884;28;20105;-63
2022/12/21 04:51:26;;;;;;;30.10;14.27;;;;;;;-1.53;72.08;100800.06;3156539;28;20408;-64
2022/12/21 04:52:58;;;;;;;28.00;12.55;;;;;;;-1.50;72.21;100815.47;3151648;28;20052;-64
2022/12/21 04:54:30;;;;;;;38.10;13.88;;;;;;;-1.50;72.18;100820.56;3151224;28;20044;-64
2022/12/21 04:56:04;;;;;;;29.25;13.07;;;;;;;-2.54;71.87;100638.06;3156480;28;20056;-64
2022/12/21 04:57:36;;;;;;;33.92;15.20;;;;;;;-1.51;71.97;100816.28;3150705;28;20048;-64
2022/12/21 04:59:08;;;;;;;32.13;13.00;;;;;;;-1.51;71.96;100809.50;3155952;28;20044;-64
2022/12/21 05:00:40;;;;;;;33.55;13.60;;;;;;;-1.55;72.01;100807.69;3153201;28;20486;-64
2022/12/21 05:02:12;;;;;;;32.53;14.13;;;;;;;-1.56;71.91;100803.41;3147611;28;20052;-65
2022/12/21 05:03:44;;;;;;;32.83;14.65;;;;;;;-1.51;71.96;100808.59;3156129;28;20050;-65
2022/12/21 05:05:16;;;;;;;37.85;16.42;;;;;;;-1.51;72.06;100806.06;3147053;28;20051;-64
2022/12/21 05:06:48;;;;;;;38.03;15.90;;;;;;;-1.56;72.06;100800.00;3156396;28;20212;-65
2022/12/21 05:08:20;;;;;;;38.10;16.70;;;;;;;-1.53;72.16;100800.94;3156469;28;20139;-65
2022/12/21 05:09:52;;;;;;;39.15;16.65;;;;;;;-1.51;72.17;100806.94;3156668;28;20443;-66
2022/12/21 05:11:25;;;;;;;34.30;15.55;;;;;;;-1.50;72.22;100805.25;3158253;28;20056;-64
2022/12/21 05:12:57;;;;;;;34.13;15.60;;;;;;;-1.49;72.27;100801.84;3148641;28;20044;-64
2022/12/21 05:14:29;;;;;;;32.22;14.82;;;;;;;-1.54;72.05;100793.22;3133664;28;20057;-64
2022/12/21 05:16:02;;;;;;;30.25;14.30;;;;;;;-1.46;72.27;100802.75;3155499;28;20109;-64
2022/12/21 05:17:34;;;;;;;;;;;;;;;-1.51;71.89;100798.38;3158115;28;20429;-64
2022/12/21 05:19:06;;;;;;;31.70;13.65;;;;;;;-1.52;72.33;100801.78;3147515;28;19924;-64
2022/12/21 05:20:38;;;;;;;25.73;13.80;;;;;;;-1.51;71.98;100794.16;3156092;28;20731;-64
2022/12/21 05:22:10;;;;;;;31.38;13.02;;;;;;;-1.50;72.00;100795.88;3158538;28;20052;-63
2022/12/21 05:23:42;;;;;;;33.40;14.10;;;;;;;-1.49;72.12;100795.03;3158633;28;20047;-64
2022/12/21 05:25:13;;;;;;;32.88;14.15;;;;;;;-1.49;72.28;100795.03;3158519;28;20048;-64
2022/12/21 05:26:47;;;;;;;35.47;13.25;;;;;;;-1.47;72.17;100795.09;3158035;28;20056;-63
2022/12/21 05:28:19;;;;;;;28.13;12.43;;;;;;;-1.47;72.16;100795.94;3158142;28;20060;-63
2022/12/21 05:29:50;;;;;;;30.40;12.60;;;;;;;-1.47;72.01;100790.84;3158484;28;20052;-64
2022/12/21 05:31:21;;;;;;;32.80;12.95;;;;;;;-1.47;72.09;100789.97;3153455;28;20449;-64
2022/12/21 05:32:53;;;;;;;28.80;11.93;;;;;;;-1.49;72.08;100792.47;3157767;28;20060;-65
2022/12/21 05:34:25;;;;;;;26.88;11.98;;;;;;;-1.54;72.23;100785.56;3155403;28;20429;-64
2022/12/21 05:35:56;;;;;;;32.90;13.00;;;;;;;-1.50;72.24;100790.78;3158022;28;20161;-64
2022/12/21 05:37:28;;;;;;;27.33;13.45;;;;;;;-1.48;72.29;100795.91;3157858;28;20513;-64
2022/12/21 05:39:00;;;;;;;34.47;13.68;;;;;;;-1.55;72.33;100779.59;3157664;28;20705;-64
2022/12/21 05:40:31;;;;;;;31.33;13.50;;;;;;;-1.51;72.26;100781.41;3158522;28;20047;-64
2022/12/21 05:42:05;;;;;;;27.27;13.40;;;;;;;-1.52;72.34;100789.88;3145927;28;20052;-64
2022/12/21 05:43:37;;;;;;;29.35;13.35;;;;;;;-1.53;72.36;100779.63;3157361;28;20059;-65
2022/12/21 05:45:09;;;;;;;27.67;12.57;;;;;;;-1.53;72.36;100783.03;3156040;28;20064;-65
2022/12/21 05:46:41;;;;;;;28.45;12.73;;;;;;;-1.61;72.39;100771.81;3156053;28;20051;-65
2022/12/21 05:48:13;;;;;;;28.15;13.45;;;;;;;-1.57;72.51;100778.69;3157896;28;20517;-65
2022/12/21 05:49:45;;;;;;;36.13;13.98;;;;;;;-1.55;72.77;100782.16;3158355;28;20052;-65
2022/12/21 05:51:17;;;;;;;35.47;14.73;;;;;;;-1.55;72.64;100783.84;3157747;28;20051;-65
2022/12/21 05:52:48;;;;;;;36.22;14.43;;;;;;;-1.53;72.67;100782.19;3154346;28;20052;-64
2022/12/21 05:54:20;;;;;;;39.50;14.27;;;;;;;-1.52;72.58;100787.31;3152421;28;20161;-64
2022/12/21 05:55:52;;;;;;;29.05;13.40;;;;;;;-1.50;72.71;100782.25;3151884;28;20130;-65
2022/12/21 05:57:26;;;;;;;34.65;13.73;;;;;;;-1.49;72.66;100786.50;3150857;28;20126;-64
2022/12/21 05:58:58;;;;;;;34.03;14.38;;;;;;;-1.51;72.73;100772.84;3157763;28;20044;-64
2022/12/21 06:00:29;;;;;;;33.25;14.73;;;;;;;-1.43;72.57;100781.53;3149416;28;20390;-64
2022/12/21 06:02:01;;;;;;;34.38;16.35;;;;;;;-1.43;72.46;100787.50;3147769;28;20133;-64
2022/12/21 06:03:33;;;;;;;32.33;15.27;;;;;;;-1.42;72.44;100785.78;3145576;28;20052;-65
2022/12/21 06:05:06;;;;;;;38.50;17.38;;;;;;;-1.42;72.42;100783.22;3146816;28;20460;-65
2022/12/21 06:06:38;;;;;;;39.80;18.55;;;;;;;-1.42;72.43;100788.34;3158121;28;20087;-64
2022/12/21 06:08:09;;;;;;;46.33;19.73;;;;;;;-1.42;72.58;100779.00;3158125;28;20048;-64
2022/12/21 06:09:41;;;;;;;49.97;18.75;;;;;;;-1.40;72.56;100772.22;3153668;28;20318;-64
2022/12/21 06:11:14;;;;;;;47.95;18.10;;;;;;;-1.41;72.47;100759.44;3149046;28;20414;-63
2022/12/21 06:12:47;;;;;;;43.08;19.52;;;;;;;-1.38;72.39;100772.25;3157000;28;20052;-63
2022/12/21 06:14:19;;;;;;;40.50;18.10;;;;;;;-1.32;72.50;100776.63;3145723;28;20485;-62
2022/12/21 06:15:51;;;;;;;47.28;19.65;;;;;;;-1.49;72.53;100741.38;3154882;28;20044;-64
2022/12/21 06:17:23;;;;;;;51.88;20.15;;;;;;;-1.26;72.44;100769.06;3146678;28;20386;-64
2022/12/21 06:18:56;;;;;;;55.45;21.55;;;;;;;-2.23;72.36;100602.97;3146576;28;20509;-64
2022/12/21 06:20:28;;;;;;;54.45;22.38;;;;;;;-1.02;72.50;100776.31;3158026;28;20044;-65
2022/12/21 06:22:00;;;;;;;51.95;19.50;;;;;;;-0.95;72.46;100767.91;3132294;28;20439;-65
2022/12/21 06:23:32;;;;;;;49.50;20.13;;;;;;;-0.82;72.27;100774.97;3156815;28;20044;-67
2022/12/21 06:25:05;;;;;;;56.55;20.10;;;;;;;-0.64;72.24;100778.66;3157538;28;20060;-66
2022/12/21 06:26:37;;;;;;;52.58;21.70;;;;;;;-0.54;72.02;100771.13;3157741;28;20052;-67
2022/12/21 06:28:10;;;;;;;56.22;21.90;;;;;;;-0.44;71.80;100777.28;3157667;28;20052;-63
2022/12/21 06:29:42;;;;;;;55.00;23.05;;;;;;;-0.39;71.54;100773.06;3139240;28;20053;-65
2022/12/21 06:31:14;;;;;;;68.00;25.10;;;;;;;-0.25;71.40;100780.97;3145432;28;20048;-66
2022/12/21 06:32:46;;;;;;;65.75;22.88;;;;;;;-0.16;71.07;100775.13;3146207;28;20052;-67
2022/12/21 06:34:18;;;;;;;79.10;27.65;;;;;;;-0.07;70.94;100777.81;3152612;28;20695;-64
2022/12/21 06:35:55;;;;;;;71.75;27.95;;;;;;;0.01;70.93;100773.66;3156486;28;20190;-63
2022/12/21 06:37:28;;;;;;;76.75;29.90;;;;;;;0.11;70.79;100785.72;3157285;28;20080;-66
2022/12/21 06:38:59;;;;;;;81.57;34.72;;;;;;;0.22;70.87;100775.63;3157511;28;20097;-62
2022/12/21 06:40:31;;;;;;;96.50;42.17;;;;;;;0.33;70.75;100760.41;3157093;28;20048;-65
2022/12/21 06:42:04;;;;;;;56.15;23.13;;;;;;;0.47;70.47;100769.09;3157579;28;20516;-65
2022/12/21 06:43:38;;;;;;;46.85;20.52;;;;;;;0.62;70.34;100764.16;3148447;28;20044;-64
2022/12/21 06:45:11;;;;;;;33.70;13.93;;;;;;;0.79;69.84;100764.31;3156451;28;20055;-65
2022/12/21 06:46:43;;;;;;;43.30;17.92;;;;;;;0.74;69.57;100730.09;3156964;28;20055;-67
2022/12/21 06:48:15;;;;;;;37.08;17.23;;;;;;;1.05;69.06;100767.13;3157413;28;20056;-64
2022/12/21 06:49:46;;;;;;;45.25;17.38;;;;;;;1.13;68.70;100751.81;3143383;28;20052;-66
2022/12/21 06:51:20;;;;;;;46.17;18.83;;;;;;;1.35;68.40;100766.50;3136719;28;20434;-68
2022/12/21 06:52:52;;;;;;;47.67;18.33;;;;;;;1.51;68.03;100758.94;3134678;28;20101;-69
2022/12/21 06:54:24;;;;;;;37.65;17.20;;;;;;;1.58;67.58;100746.16;3137430;28;20105;-69
2022/12/21 06:55:59;;;;;;;38.55;16.63;;;;;;;1.69;66.96;100741.09;3139430;28;20048;-68
2022/12/21 06:57:33;;;;;;;35.42;15.80;;;;;;;1.84;66.55;100760.03;3137747;28;20727;-68
2022/12/21 06:59:06;;;;;;;36.90;16.75;;;;;;;1.77;66.10;100734.28;3137147;28;20063;-69
2022/12/21 07:00:38;;;;;;;41.35;18.15;;;;;;;1.96;66.01;100748.09;3136055;28;20118;-70
2022/12/21 07:02:11;;;;;;;50.17;17.42;;;;;;;2.07;65.80;100742.13;3138212;28;20113;-69
2022/12/21 07:03:43;;;;;;;39.97;17.83;;;;;;;2.20;65.44;100744.78;3136590;28;20106;-70
2022/12/21 07:05:15;;;;;;;46.72;17.83;;;;;;;2.35;65.39;100737.97;3143221;28;20052;-70
2022/12/21 07:06:48;;;;;;;43.47;16.95;;;;;;;2.59;65.15;100750.06;3139586;28;20061;-70
2022/12/21 07:08:21;;;;;;;;;;;;;;;2.75;64.78;100741.50;3139286;28;20125;-69
2022/12/21 07:09:53;;;;;;;33.60;13.93;;;;;;;2.89;64.41;100738.97;3136545;28;20352;-69
2022/12/21 07:11:28;;;;;;;37.53;14.85;;;;;;;3.05;63.56;100747.56;3132962;28;20190;-69
2022/12/21 07:13:00;;;;;;;29.15;13.65;;;;;;;3.19;63.02;100743.25;3135859;28;20402;-70
2022/12/21 07:14:33;;;;;;;38.15;15.88;;;;;;;3.28;62.68;100722.66;3139391;28;21010;-69
2022/12/21 07:16:06;;;;;;;36.15;14.88;;;;;;;3.53;62.23;100722.66;3141668;28;20059;-67
2022/12/21 07:17:38;;;;;;;47.40;18.65;;;;;;;3.83;61.81;100735.47;3135068;28;20563;-67
2022/12/21 07:19:10;;;;;;;43.65;16.63;;;;;;;4.12;61.25;100734.53;3135847;28;20068;-65
2022/12/21 07:20:42;;;;;;;38.50;16.92;;;;;;;4.38;60.44;100723.22;3137426;28;20413;-70
2022/12/21 07:22:14;;;;;;;37.92;16.67;;;;;;;4.56;59.71;100707.66;3139911;28;20102;-66
2022/12/21 07:23:46;;;;;;;39.92;17.98;;;;;;;4.96;58.78;100739.19;3139842;28;20055;-65
2022/12/21 07:25:18;;;;;;;37.45;17.17;;;;;;;5.22;58.46;100727.81;3134138;28;20049;-67
2022/12/21 07:26:50;;;;;;;55.10;21.15;;;;;;;5.56;57.73;100737.84;3137232;28;20446;-70